createdAt,value
2023-02-22T00:03:04.227Z,3.40
2023-02-22T00:08:11.561Z,3.30
2023-02-22T00:13:15.004Z,2.90
2023-02-22T00:18:19.825Z,3.00
2023-02-22T00:23:24.170Z,3.50
2023-02-22T00:28:27.380Z,2.90
2023-02-22T00:33:30.322Z,3.20
2023-02-22T00:38:33.242Z,3.60
2023-02-22T00:43:36.235Z,3.30
2023-02-22T00:48:39.130Z,3.10
2023-02-22T00:53:42.034Z,2.80
2023-02-22T00:58:45.044Z,2.50
2023-02-22T01:03:48.049Z,2.40
2023-02-22T01:08:51.370Z,2.40
2023-02-22T01:13:55.560Z,2.50
2023-02-22T01:18:58.398Z,3.00
2023-02-22T01:24:01.301Z,2.30
2023-02-22T01:29:04.203Z,2.60
2023-02-22T01:34:06.992Z,2.30
2023-02-22T01:39:10.529Z,2.20
2023-02-22T01:44:35.750Z,2.40
2023-02-22T01:49:48.087Z,2.80
2023-02-22T01:54:56.205Z,2.90
2023-02-22T02:00:10.117Z,2.40
2023-02-22T02:05:14.538Z,1.90
2023-02-22T02:10:17.817Z,2.20
2023-02-22T02:15:33.314Z,2.10
2023-02-22T02:21:10.425Z,2.20
2023-02-22T02:26:35.077Z,2.40
2023-02-22T02:31:56.792Z,2.10
2023-02-22T02:37:28.150Z,2.60
2023-02-22T02:42:38.225Z,2.10
2023-02-22T02:47:49.524Z,3.20
2023-02-22T02:52:55.705Z,2.90
2023-02-22T02:57:59.634Z,3.20
2023-02-22T03:03:07.558Z,3.20
2023-02-22T03:08:27.058Z,3.10
2023-02-22T03:18:59.789Z,3.20
2023-02-22T03:24:22.356Z,3.10
2023-02-22T03:29:29.496Z,3.30
2023-02-22T03:34:43.220Z,3.10
2023-02-22T03:39:49.666Z,3.10
2023-02-22T03:44:55.480Z,2.80
2023-02-22T03:50:07.189Z,3.10
2023-02-22T03:55:12.246Z,3.00
2023-02-22T04:00:22.406Z,3.20
2023-02-22T04:12:00.704Z,3.20
2023-02-22T04:17:03.714Z,3.10
2023-02-22T04:22:06.607Z,3.30
2023-02-22T04:27:09.508Z,2.80
2023-02-22T04:32:12.469Z,3.40
2023-02-22T04:37:15.729Z,3.60
2023-02-22T04:42:18.632Z,3.30
2023-02-22T04:47:21.435Z,3.70
2023-02-22T04:52:24.332Z,3.90
2023-02-22T04:57:27.446Z,4.50
2023-02-22T05:02:30.391Z,4.60
2023-02-22T05:07:33.261Z,4.30
2023-02-22T05:12:37.226Z,3.30
2023-02-22T05:17:40.080Z,3.80
2023-02-22T05:22:42.985Z,5.10
2023-02-22T05:27:50.189Z,4.50
2023-02-22T05:32:53.407Z,3.60
2023-02-22T05:37:57.822Z,4.10
2023-02-22T05:43:02.388Z,3.80
2023-02-22T05:48:06.045Z,3.10
2023-02-22T05:53:08.912Z,3.50
2023-02-22T05:58:11.918Z,3.60
2023-02-22T06:03:15.022Z,5.00
2023-02-22T06:08:18.346Z,3.60
2023-02-22T06:13:21.349Z,2.90
2023-02-22T06:18:26.909Z,3.90
2023-02-22T06:23:29.816Z,3.60
2023-02-22T06:28:32.725Z,2.60
2023-02-22T06:33:35.624Z,3.60
2023-02-22T06:38:38.728Z,2.70
2023-02-22T06:43:42.043Z,3.40
2023-02-22T06:48:45.163Z,4.20
2023-02-22T06:53:48.158Z,3.60
2023-02-22T06:58:51.062Z,3.60
2023-02-22T07:03:54.172Z,3.90
2023-02-22T07:08:57.084Z,3.40
2023-02-22T07:14:00.004Z,4.20
2023-02-22T07:19:02.906Z,4.00
2023-02-22T07:24:06.657Z,5.00
2023-02-22T07:29:11.567Z,6.90
2023-02-22T07:34:14.578Z,4.70
2023-02-22T07:39:17.474Z,10.00
2023-02-22T07:44:20.691Z,4.50
2023-02-22T07:49:23.904Z,12.10
2023-02-22T07:54:26.803Z,4.90
2023-02-22T07:59:29.710Z,3.50
2023-02-22T08:04:32.611Z,3.00
2023-02-22T08:09:35.515Z,4.80
2023-02-22T08:14:38.415Z,3.70
2023-02-22T08:19:41.646Z,4.50
2023-02-22T08:24:44.639Z,3.60
2023-02-22T08:29:48.254Z,3.90
2023-02-22T08:34:51.779Z,4.70
2023-02-22T08:39:56.316Z,3.80
2023-02-22T08:44:59.324Z,4.40
2023-02-22T08:50:02.250Z,5.60
2023-02-22T08:55:05.885Z,7.10
2023-02-22T09:00:09.842Z,6.00
2023-02-22T09:05:13.084Z,6.60
2023-02-22T09:10:24.596Z,6.50
2023-02-22T09:15:27.700Z,6.30
2023-02-22T09:20:31.523Z,6.20
2023-02-22T09:25:34.533Z,6.30
2023-02-22T09:30:37.886Z,5.70
2023-02-22T09:35:43.103Z,8.60
2023-02-22T09:40:51.237Z,4.30
2023-02-22T09:46:20.130Z,8.20
2023-02-22T09:56:34.248Z,4.80
2023-02-22T10:01:48.490Z,4.60
2023-02-22T10:07:12.295Z,5.40
2023-02-22T10:12:33.444Z,4.80
2023-02-22T10:17:51.610Z,4.50
2023-02-22T10:23:07.537Z,3.80
2023-02-22T10:28:19.488Z,4.40
2023-02-22T10:33:26.745Z,3.30
2023-02-22T10:38:33.550Z,3.70
2023-02-22T10:43:41.873Z,4.60
2023-02-22T10:48:48.874Z,3.70
2023-02-22T10:54:13.382Z,4.20
2023-02-22T10:59:33.927Z,4.40
2023-02-22T11:04:58.652Z,4.70
2023-02-22T11:10:06.097Z,3.90
2023-02-22T11:15:18.659Z,4.10
2023-02-22T11:20:28.098Z,3.90
2023-02-22T11:25:35.321Z,4.10
2023-02-22T11:30:38.675Z,3.00
2023-02-22T11:35:54.851Z,4.60
2023-02-22T11:41:16.500Z,3.80
2023-02-22T11:46:27.596Z,3.80
2023-02-22T11:51:52.613Z,3.40
2023-02-22T11:57:29.221Z,3.40
2023-02-22T12:03:02.104Z,4.20
2023-02-22T12:08:23.889Z,3.90
2023-02-22T12:13:36.909Z,3.20
2023-02-22T12:19:02.128Z,3.50
2023-02-22T12:24:14.587Z,3.00
2023-02-22T12:29:37.830Z,3.50
2023-02-22T12:34:52.482Z,3.80
2023-02-22T12:40:08.609Z,3.60
2023-02-22T12:45:17.184Z,3.90
2023-02-22T12:50:23.614Z,4.10
2023-02-22T12:55:33.435Z,3.20
2023-02-22T13:05:41.749Z,4.00
2023-02-22T13:11:22.378Z,4.00
2023-02-22T13:16:52.865Z,3.40
2023-02-22T13:22:01.569Z,3.50
2023-02-22T13:27:12.975Z,4.40
2023-02-22T13:32:51.796Z,4.50
2023-02-22T13:38:01.684Z,4.20
2023-02-22T13:43:28.964Z,3.60
2023-02-22T13:48:50.502Z,3.20
2023-02-22T13:54:32.729Z,3.70
2023-02-22T13:59:37.291Z,3.60
2023-02-22T14:04:41.646Z,4.10
2023-02-22T14:09:58.028Z,3.60
2023-02-22T14:15:18.693Z,3.60
2023-02-22T14:20:36.245Z,3.40
2023-02-22T14:25:43.223Z,4.10
2023-02-22T14:30:46.514Z,3.90
2023-02-22T14:35:50.965Z,3.80
2023-02-22T14:40:57.950Z,3.70
2023-02-22T14:46:05.494Z,3.30
2023-02-22T14:51:21.820Z,3.40
2023-02-22T14:56:36.458Z,6.50
2023-02-22T15:01:52.803Z,5.10
2023-02-22T15:07:09.411Z,4.90
2023-02-22T15:12:24.089Z,3.90
2023-02-22T15:17:27.815Z,3.70
2023-02-22T15:22:36.116Z,4.70
2023-02-22T15:27:44.569Z,4.20
2023-02-22T15:33:03.191Z,5.00
2023-02-22T15:38:13.423Z,5.60
2023-02-22T15:43:28.614Z,4.60
2023-02-22T15:48:33.471Z,4.00
2023-02-22T15:53:42.515Z,3.40
2023-02-22T15:58:47.840Z,5.20
2023-02-22T16:03:58.570Z,5.40
2023-02-22T16:09:17.139Z,5.80
2023-02-22T16:14:35.509Z,4.70
2023-02-22T16:19:47.009Z,5.50
2023-02-22T16:24:52.838Z,4.80
2023-02-22T16:30:26.964Z,5.40
2023-02-22T16:35:29.927Z,9.10
2023-02-22T16:40:38.676Z,8.60
2023-02-22T16:45:42.658Z,11.90
2023-02-22T16:50:46.895Z,8.70
2023-02-22T16:55:54.030Z,9.70
2023-02-22T17:00:57.599Z,14.80
2023-02-22T17:06:00.781Z,14.10
2023-02-22T17:11:04.410Z,12.80
2023-02-22T17:16:14.272Z,10.80
2023-02-22T17:21:17.251Z,8.60
2023-02-22T17:26:20.255Z,7.30
2023-02-22T17:31:28.464Z,5.30
2023-02-22T17:36:32.665Z,5.40
2023-02-22T17:41:35.627Z,5.80
2023-02-22T17:46:41.019Z,4.90
2023-02-22T17:51:49.665Z,4.60
2023-02-22T17:56:52.536Z,5.30
2023-02-22T18:01:55.468Z,5.50
2023-02-22T18:06:58.440Z,5.70
2023-02-22T18:12:01.461Z,8.70
2023-02-22T18:17:05.174Z,7.90
2023-02-22T18:22:08.695Z,6.30
2023-02-22T18:27:12.099Z,6.50
2023-02-22T18:32:15.463Z,5.90
2023-02-22T18:37:21.086Z,6.60
2023-02-22T18:42:25.724Z,6.80
2023-02-22T18:47:28.737Z,5.80
2023-02-22T18:52:31.653Z,7.40
2023-02-22T18:57:36.097Z,5.30
2023-02-22T19:02:38.905Z,4.60
2023-02-22T19:07:41.900Z,6.00
2023-02-22T19:12:44.812Z,4.50
2023-02-22T19:17:47.702Z,6.10
2023-02-22T19:22:50.913Z,5.60
2023-02-22T19:27:57.004Z,4.80
2023-02-22T19:33:03.066Z,5.90
2023-02-22T19:38:05.868Z,4.20
2023-02-22T19:43:08.876Z,4.80
2023-02-22T19:48:11.783Z,5.50
2023-02-22T19:53:16.326Z,5.20
2023-02-22T19:58:19.331Z,4.40
2023-02-22T20:03:26.056Z,4.80
2023-02-22T20:08:28.995Z,6.90
2023-02-22T20:13:31.929Z,5.50
2023-02-22T20:18:34.854Z,4.80
2023-02-22T20:23:40.812Z,5.20
2023-02-22T20:28:43.926Z,7.60
2023-02-22T20:33:49.493Z,6.90
2023-02-22T20:38:57.956Z,6.00
2023-02-22T20:44:02.423Z,7.30
2023-02-22T20:49:11.425Z,6.50
2023-02-22T20:54:15.447Z,5.30
2023-02-22T20:59:19.588Z,6.00
2023-02-22T21:04:23.142Z,3.60
2023-02-22T21:09:26.204Z,7.00
2023-02-22T21:14:31.017Z,6.70
2023-02-22T21:19:34.065Z,5.10
2023-02-22T21:24:37.179Z,5.80
2023-02-22T21:29:40.072Z,7.00
2023-02-22T21:34:42.975Z,6.50
2023-02-22T21:39:48.092Z,4.80
2023-02-22T21:44:56.223Z,5.20
2023-02-22T21:49:59.275Z,5.30
2023-02-22T21:55:02.608Z,5.40
2023-02-22T22:00:17.467Z,4.40
2023-02-22T22:05:26.512Z,3.90
2023-02-22T22:10:33.118Z,4.50
2023-02-22T22:15:37.644Z,4.60
2023-02-22T22:20:40.957Z,5.80
2023-02-22T22:25:43.965Z,5.90
2023-02-22T22:30:49.498Z,5.60
2023-02-22T22:35:52.434Z,5.80
2023-02-22T22:41:01.268Z,6.50
2023-02-22T22:46:06.073Z,6.30
2023-02-22T22:51:12.845Z,5.10
2023-02-22T22:56:29.444Z,4.30
2023-02-22T23:01:34.388Z,4.90
2023-02-22T23:06:41.533Z,4.50
2023-02-22T23:11:51.086Z,4.20
2023-02-22T23:17:04.503Z,3.30
2023-02-22T23:22:08.597Z,4.10
2023-02-22T23:27:12.566Z,4.50
2023-02-22T23:32:15.586Z,4.20
2023-02-22T23:37:20.938Z,3.40
2023-02-22T23:42:23.955Z,4.40
2023-02-22T23:47:31.868Z,5.20
2023-02-22T23:52:37.533Z,4.60
2023-02-22T23:57:43.405Z,5.10
